Cusseta, GA

12:43 AM EDT on July 23, 2014 (GMT -0400)
Butler (K6A1) Elev 666 ft | 32.57 °N, 84.25 °W | Change Station

Current weather conditions updated 629 days ago

Thunderstorm
Thunderstorm
70 °F
Feels Like 70 °F
N
2
Wind Variable Wind from South
Gusts 3 mph

Today is forecast to be Much Warmer than yesterday.

Today
High -- | Low -- °F
--% Chance of Precip.
Yesterday
High -- | Low -- °F
Precip. -- in
6:48 AM 8:42 PM
Waning Crescent, 13% visible
Pressure 29.92 in
Visibility 10.0 miles
Clouds
Dew Point 70 °F
Humidity 99%
Rainfall 0.00 in
Snow Depth Not available.
UV Not available.
Pollen 2.60 out of 12
Ozone Good
PM2.5 Good
Flu Activity Not available.
METAR K6A1 311715Z AUTO 31010G18KT 10SM 20/01 A2992 RMK AO2

More Conditions Fewer Conditions

Pressure 29.92 in
Visibility 10.0 miles
Clouds
Dew Point 70 °F
Humidity 99%
Rainfall 0.00 in
Snow Depth Not available.
UV Not available.
Pollen 2.60 out of 12
Ozone Good
PM2.5 Good
Flu Activity Not available.
METAR K6A1 311715Z AUTO 31010G18KT 10SM 20/01 A2992 RMK AO2

More Conditions Fewer Conditions

10-Day Weather Forecast

Almanac

Astronomy

Jul. 23, 2014 Rise Set
Actual Time 6:48 AM EDT 8:42 PM EDT
Civil Twilight 6:20 AM EDT 9:10 PM EDT
Nautical Twilight 5:47 AM EDT 9:43 PM EDT
Astronomical Twilight 5:12 AM EDT 10:18 PM EDT
Moon 4:05 AM EDT 6:12 PM EDT
Length of Visible Light 14h 49m
Length of Day
13h 54m
Tomorrow will be 1m 14s shorter.
Waning Crescent, 13% of the Moon is Illuminated
Today
Waning Crescent
Jul 26
New
Aug 3
First Quarter
Aug 10
Full
Aug 17
Last Quarter

Today's Extremes

State Highs State Lows

Community

WunderPhotos

Upload Photos

1,736,508 photos uploaded!

Nearby

Air Quality

  Air Quality AQ Index Pollutant
Yesterday Good
OZONE
Yesterday Good
PM2.5
Current Good
PM2.5
Current Good
OZONE
Tuesday Good
PM2.5
Wednesday Good
PM2.5

Snow Depth

Station Depth Elevation
No new snow has been reported.

Earthquake Activity

City Distance Mag. Time & Date
No recent earthquake activity has been reported nearby.
Minimum magnitude displayed is 2.5.

Coastal Water Temperatures

Place Temperature
No Stations Reporting

Nearby Weather Stations

Station Location Temp. Heat Index Dew Point Humidity Wind Precip. Elev Updated Type
RAWS FORT BENNING GA, Fort Benning, GA 74 °F 72 °F 72 °F 92% East  at  2 mph 0.00 in / hr 466 ft 11:10 PM EDT MADIS
Lincoln Hills, Columbus, GA 72.1 °F - 72 °F 99% West  at  0.0 mph - / hr 433 ft 12:40 AM EDT Normal
Foxfire, Columbus, GA 72.7 °F - 72 °F 99% WSW  at  0.0 mph 0.00 in / hr 436 ft 12:30 AM EDT Normal
Lakewood Heights, Phenix City, AL 72.1 °F - 72 °F 98% NNW  at  0.0 mph 0.00 in / hr 394 ft 11:43 PM CDT Normal
Smiths Station, AL 72.9 °F - 72 °F 96% NNW  at  0.0 mph 0.00 in / hr 370 ft 12:35 AM EDT Normal
Fortson GA, Columbus, GA 73.2 °F 72 °F 69 °F 88% SE  at  0.0 mph 0.00 in / hr 528 ft 12:43 AM EDT Rapid Fire
Phenix City, Phenix City, AL 72.9 °F - 72 °F 98% North  at  0.0 mph 0.00 in / hr 433 ft 11:40 PM CDT Normal

Show More Stations Show Fewer Stations